Tiempo atmosférico en la estación meteorológica de Sevilla Aeropuerto, Sevilla (34 m.)



Fecha
DESCASC
Temp. máxima en grados centígrados (hora)
DESCASC
Temp. mínima en grados centígrados (hora)
DESCASC
Temp. media en grados centígrados
DESCASC
Racha de viento máxima en m/sg (hora)
DESCASC
Velocidad máxima media en intervalos de 10 minutos(hora)
DESCASC
Precipitaciones diarias en mm
DESCASC
Precipitaciones de 00:00 a 06:00 en mm
DESCASC
Precipitaciones de 06:00 a 12:00 en mm
DESCASC
Precipitaciones de 12:00 a 18:00 en mm
DESCASC
Precipitaciones de 18:00 a 24:00 en mm
DESCASC
20-01-2019 17 (16:40) 6.6 (23:10) 11.8 11.67 (13:20) 7.5 (08:20) 0 0 0 0 0
19-01-2019 13.1 (23:59) 8.2 (08:30) 10.7 11.67 (23:00) 7.5 (23:00) 4.5 1.5 0.1 0 2.9
18-01-2019 16 (16:00) 2.1 (00:00) 9 5.83 (21:30) 3.89 (21:40) 0 0 0 0 0
17-01-2019 15.4 (17:20) 5.2 (00:00) 10.3 5.83 (06:30) 3.61 (15:10) -- 0 -- -- 0
16-01-2019 17 (15:40) 3.1 (05:10) 10 5 (15:30) 3.33 (11:10) 0 0 0 0 0
15-01-2019 14.4 (14:20) 2.9 (00:00) 8.6 -- (--) -- (--) 0 0 0 0 0
14-01-2019 17.9 (17:00) 1.4 (00:00) 9.6 6.11 (10:50) 3.89 (10:50) 0 0 0 0 0
13-01-2019 17.4 (17:00) 1 (07:50) 9.2 8.89 (11:20) 6.11 (12:10) 0 0 0 0 0
12-01-2019 15.1 (15:50) 4 (00:00) 9.6 11.67 (10:10) 7.5 (10:10) 0 0 0 0 0
11-01-2019 13.6 (16:10) 1.3 (00:00) 7.5 12.5 (13:30) 8.33 (13:30) 0 0 0 0 0
10-01-2019 16.9 (16:30) 2.4 (00:00) 9.6 9.17 (13:00) 6.94 (13:20) 0 0 0 0 0
09-01-2019 18.2 (16:40) 0.9 (00:00) 9.6 6.67 (11:00) 4.72 (11:10) 0 0 0 0 0
08-01-2019 17 (16:30) 1.5 (00:00) 9.3 6.67 (11:00) 5 (11:30) 0 0 0 0 0
07-01-2019 17 (16:20) 1.2 (00:00) 9.1 5.83 (10:50) 4.17 (11:00) 0 0 0 0 0
06-01-2019 18.7 (16:30) 0.5 (00:00) 9.6 5 (17:00) 2.78 (09:40) 0 0 0 0 0
05-01-2019 17.2 (16:50) 3.4 (00:00) 10.3 8.89 (12:40) 6.67 (12:40) 0 0 0 0 0
04-01-2019 17.2 (16:10) 4.6 (00:00) 10.9 9.17 (15:00) 6.39 (15:00) 0 0 0 0 0
03-01-2019 15.9 (16:00) 4.9 (00:00) 10.4 6.67 (12:10) 4.72 (12:10) 0 0 0 0 0
02-01-2019 17.8 (15:50) 2.1 (00:00) 9.9 5 (11:00) 3.61 (11:00) 0 0 0 0 0
01-01-2019 17.8 (17:10) 3.1 (08:10) 10.4 7.22 (11:10) 5 (11:00) 0 0 0 0 0
31-12-2018 17.6 (15:50) 5.2 (00:00) 11.4 8.89 (13:50) 6.94 (13:50) 0 0 0 0 0
30-12-2018 18 (15:20) 8.6 (00:00) 13.3 11.39 (01:50) 7.5 (14:20) 0 0 0 0 0
29-12-2018 16.1 (15:40) 5.8 (00:00) 11 11.39 (11:50) 8.33 (11:50) 0 0 0 0 0
28-12-2018 16.9 (16:30) 4.2 (08:10) 10.5 6.67 (13:10) 4.17 (13:10) 0 0 0 0 0
27-12-2018 18.2 (16:40) 5.3 (00:00) 11.8 5 (10:40) 3.61 (11:30) 0 0 0 0 0
26-12-2018 16.9 (16:30) 4.5 (00:00) 10.7 5.83 (12:50) 4.17 (12:50) 0 0 0 0 0
25-12-2018 18.8 (16:40) 6.2 (00:00) 12.5 6.67 (09:20) 4.72 (09:20) 0 0 0 0 0
23-12-2018 19.3 (16:40) 6 (00:00) 12.6 6.67 (03:50) 5 (04:00) 0 0 0 0 0

Gráficas

Temp. máximas Temp. mínimas Temp. medias Precipitaciones Rachas de viento máximas Velocidades máximas media en intervalos de 10 minutos

Datos horarios

Fecha y hora oficial Temperatura (ºC) Velocidad del viento (km/h) Dirección del viento Racha (km/h) Dirección de racha Precipitación (mm) Presión (hPa) Tendencia (hPa) Humedad (%)
2019-01-21 23:00:00 5.8 0 Calma 9 Oeste 0 1019.4 1.4 88
2019-01-21 22:00:00 6.8 0 Calma 9 Noroeste 0 1018.9 1.4 82
2019-01-21 21:00:00 9.5 7 Norte 13 Noroeste 0 1018.7 1.4 69
2019-01-21 20:00:00 9.9 4 Oeste 8 Oeste 0 1018 0.8 70
2019-01-21 19:00:00 12.8 0 Calma 8 Sudoeste 0 1017.5 0.1 59
2019-01-21 18:00:00 16.4 5 Sudoeste 9 Noroeste 0 1017.3 -0.3 40
2019-01-21 17:00:00 16.8 3 Sudeste 13 Sur 0 1017.2 -0.9 37
2019-01-21 16:00:00 16 5 Este 13 Nordeste 0 1017.4 -1.4 39
2019-01-21 15:00:00 15.3 5 Este 13 Este 0 1017.6 -1.7 47
2019-01-21 14:00:00 14.4 6 Nordeste 15 Este 0 1018.1 -1 52
2019-01-21 13:00:00 12.9 5 Noroeste 13 Norte 0 1018.8 0.3 59
2019-01-21 12:00:00 11.6 9 Nordeste 17 Norte 0 1019.3 1.3 67
2019-01-21 11:00:00 8.9 6 Nordeste 11 Nordeste 0 1019.1 1.7 80
2019-01-21 10:00:00 6.6 2 Noroeste 5 Noroeste 0 1018.5 1.4 84
2019-01-21 09:00:00 3.4 6 Norte 11 Noroeste 0 1018 1.2 93
2019-01-21 08:00:00 2.5 0 Calma 8 Sudeste 0 1017.4 0.8 94
2019-01-21 07:00:00 2.4 5 Sudeste 9 Sudeste 0 1017.1 0.5 94
2019-01-21 06:00:00 3.3 0 Calma 5 Sudoeste 0 1016.8 0.3 93
2019-01-21 05:00:00 3.3 5 Sur 9 Sudeste 0 1016.6 0 93
2019-01-21 04:00:00 3.7 0 Calma 9 Este 0 1016.6 -0.2 92
2019-01-21 03:00:00 4.4 5 Sudeste 8 Sudeste 0 1016.5 0.2 88
2019-01-21 02:00:00 5.7 5 Norte 8 Norte 0 1016.6 0.8 87
2019-01-21 01:00:00 6.6 0 Calma 8 Noroeste 0 1016.8 1.4 83
2019-01-21 00:00:00 7 5 Noroeste 8 Noroeste 0 1016.3 1.2 82
2019-01-20 23:00:00 7 0 Calma 9 Noroeste 0 1015.8 1.4 83
2019-01-20 22:00:00 8.7 6 Noroeste 15 Noroeste 0 1015.4 1.8 76
2019-01-20 21:00:00 10.3 5 Noroeste 11 Norte 0 1015.1 2.2 70
2019-01-20 20:00:00 11.2 10 Noroeste 18 Noroeste 0 1014.4 2.2 69
2019-01-20 19:00:00 13 18 Noroeste 30 Norte 0 1013.6 1.7 62
2019-01-20 18:00:00 15.2 21 Norte 32 Norte 0 1012.9 1.4 55
2019-01-20 17:00:00 16.4 17 Norte 35 Norte 0 1012.2 0.6 51
2019-01-20 16:00:00 15.8 17 Norte 30 Norte 0 1011.9 0.2 54
2019-01-20 15:00:00 15.6 21 Norte 32 Norte 0 1011.5 -0.3 54
2019-01-20 14:00:00 15.7 16 Norte 42 Norte 0 1011.6 0.7 57
2019-01-20 13:00:00 15 18 Norte 33 Norte 0 1011.7 1.5 61
2019-01-20 12:00:00 14.2 16 Norte 30 Noroeste 0 1011.8 2.5 67
2019-01-20 11:00:00 13.9 18 Noroeste 26 Oeste 0 1010.9 2.5 72
2019-01-20 10:00:00 11.9 16 Oeste 22 Oeste 0 1010.2 2.2 83
2019-01-20 09:00:00 11.5 20 Oeste 33 Oeste 0 1009.3 1.1 81
2019-01-20 08:00:00 11.8 26 Oeste 35 Oeste 0 1008.4 0.1 87
2019-01-20 07:00:00 11.6 13 Sudoeste 26 Oeste 0 1008 -0.9 95
2019-01-20 06:00:00 11.8 16 Sudoeste 26 Oeste 0 1008.2 -0.8 94
2019-01-20 05:00:00 11.8 17 Sudoeste 28 Sudoeste 0 1008.3 -0.9 95
2019-01-20 04:00:00 12.1 17 Sudoeste 26 Sudoeste 0 1008.9 -0.5 95
2019-01-20 03:00:00 12.3 15 Sudoeste 21 Sudoeste 0 1009 -0.3 94
2019-01-20 02:00:00 12 7 Sudoeste 18 Oeste 0 1009.2 -0.1 96
2019-01-20 01:00:00 12.4 14 Oeste 21 Oeste 0 1009.4 -0.7 96
2019-01-20 00:00:00 13 21 Sudoeste 39 Sudoeste 0 1009.3 -2.1 96
2019-01-19 23:00:00 12.8 27 Sudoeste 42 Sudoeste 0.5 1009.3 -2.5 95
2019-01-19 22:00:00 12.7 12 Sudoeste 28 Sudoeste 2.3 1010.1 -2.5 97
2019-01-19 21:00:00 12.1 12 Sudoeste 22 Sur 0.1 1011.4 -1.6 95
2019-01-19 20:00:00 11.5 13 Sur 18 Sur 0 1011.8 -1.8 92
2019-01-19 19:00:00 11.2 9 Sur 18 Sur 0 1012.6 -1.4 94
2019-01-19 18:00:00 11.1 9 Sur 17 Sudoeste 0 1013 -1.8 93
2019-01-19 17:00:00 11.1 9 Sudoeste 18 Sudoeste 0 1013.6 -2.2 91
2019-01-19 16:00:00 11.4 10 Sudoeste 17 Sudoeste 0 1014 -2.5 88
2019-01-19 15:00:00 11 9 Sudoeste 15 Oeste 0 1014.8 -1.9 86
2019-01-19 14:00:00 10.9 9 Sudoeste 13 Oeste 0 1015.8 -1 86
2019-01-19 13:00:00 10.5 5 Oeste 13 Oeste 0 1016.5 0.8 88
2019-01-19 12:00:00 10.2 0 Calma 8 Oeste 0 1016.7 1 88
2019-01-19 11:00:00 9.5 7 Oeste 17 Este 0 1016.8 1.8 94
2019-01-19 10:00:00 8.8 8 Este 13 Este 0 1015.7 0.9 97
2019-01-19 09:00:00 8.2 9 Nordeste 17 Nordeste 0 1015.7 0.4 98
2019-01-19 08:00:00 8.4 12 Nordeste 13 Nordeste 0 1015 -0.4 98
2019-01-19 07:00:00 8.3 9 Nordeste 13 Este 0.1 1014.8 -1.2 98
2019-01-19 06:00:00 8.4 8 Nordeste 9 Nordeste 0.1 1015.3 -1 97
2019-01-19 05:00:00 8.4 6 Este 9 Este 0.1 1015.4 -0.9 96
2019-01-19 04:00:00 8.6 0 Calma 4 Nordeste 0.6 1016 -0.7 94
2019-01-19 03:00:00 8.9 5 Oeste 15 Oeste 0.3 1016.3 -0.6 91
2019-01-19 02:00:00 9.5 11 Oeste 21 Oeste 0.4 1016.3 -0.6 85
2019-01-19 01:00:00 10.2 11 Oeste 13 Oeste 0 1016.7 0.2 75
2019-01-19 00:00:00 10.9 0 Calma 15 Oeste 0 1016.9 0.8 69
2019-01-18 23:00:00 11.1 14 Oeste 21 Oeste 0 1016.9 1.1 65
2019-01-18 22:00:00 11.8 13 Oeste 21 Oeste 0 1016.5 0.9 55
2019-01-18 21:00:00 11.9 10 Oeste 18 Oeste 0 1016.1 0.5 53
2019-01-18 20:00:00 13.2 11 Sudoeste 18 Sudoeste 0 1015.8 0.1 56
2019-01-18 19:00:00 13.4 10 Sudoeste 17 Sudoeste 0 1015.6 -0.6 59
2019-01-18 18:00:00 14.6 12 Sudoeste 18 Sudoeste 0 1015.6 -0.9 54
2019-01-18 17:00:00 15 6 Sudoeste 15 Noroeste 0 1015.7 -1.5 45
2019-01-18 16:00:00 15.9 12 Oeste 18 Oeste 0 1016.2 -1.7 44
2019-01-18 15:00:00 15.4 5 Oeste 11 Oeste 0 1016.5 -2.1 45
2019-01-18 14:00:00 14.2 3 Nordeste 9 Norte 0 1017.2 -1.1 51
2019-01-18 13:00:00 13 4 Nordeste 11 Este 0 1017.9 0.1 54
2019-01-18 12:00:00 11.4 7 Nordeste 13 Nordeste 0 1018.6 1.2 63
2019-01-18 11:00:00 8.7 10 Nordeste 13 Nordeste 0 1018.3 1.6 79
2019-01-18 10:00:00 5.3 0 Calma 5 Este 0 1017.8 1.6 93
2019-01-18 09:00:00 2.2 4 Este -- -- 0 1017.4 1.7 94
2019-01-18 08:00:00 3.1 0 Calma 5 Noroeste 0 1016.7 0.7 95
2019-01-18 07:00:00 2.9 0 Calma 5 Sudeste 0 1016.2 -0.1 95
2019-01-18 06:00:00 3.1 2 Sudeste 5 Sudeste 0 1015.7 -0.6 93
2019-01-18 05:00:00 4 0 Calma 8 Norte 0 1016 -0.4 91
2019-01-18 04:00:00 4.3 0 Calma 5 Noroeste 0 1016.3 -0.2 92
2019-01-18 03:00:00 4.4 7 Oeste 9 Oeste 0 1016.3 -0.4 90
2019-01-18 02:00:00 6.7 2 Norte 13 Nordeste 0 1016.4 0.3 85
2019-01-18 01:00:00 7.4 10 Nordeste 17 Nordeste 0 1016.5 1 81
2019-01-18 00:00:00 7.5 10 Nordeste 15 Nordeste 0 1016.7 1.5 87
2019-01-17 23:00:00 8.7 8 Nordeste 13 Nordeste 0 1016.1 1.2 85
2019-01-17 22:00:00 11.1 9 Nordeste 15 Nordeste 0 1015.5 1 78
2019-01-17 21:00:00 11.8 2 Nordeste 8 Nordeste 0 1015.2 1.4 74
2019-01-17 20:00:00 12 0 Calma 5 Este 0 1014.9 1.2 72
2019-01-17 19:00:00 11.9 4 Este 8 Este 0 1014.5 0.9 74
2019-01-17 18:00:00 13.9 8 Oeste 15 Oeste 0 1013.8 -0.3 62
2019-01-17 17:00:00 15.1 9 Oeste 15 Oeste 0 1013.7 -1 58
2019-01-17 16:00:00 14 0 Calma 18 Norte 0 1013.6 -2.1 64
2019-01-17 15:00:00 14.8 9 Norte 18 Norte 0 1014.1 -2.3 58
2019-01-17 14:00:00 14.4 4 Nordeste 13 Nordeste 0 1014.7 -1.4 59
2019-01-17 13:00:00 12.6 9 Norte 15 Norte -- 1015.7 0.2 65
2019-01-17 12:00:00 11.8 5 Norte 17 Noroeste -- 1016.4 1.2 71
2019-01-17 11:00:00 10.4 4 Este 11 Nordeste 0 1016.1 1.4 75
2019-01-17 10:00:00 8.6 8 Nordeste 15 Este 0 1015.5 1.2 83
2019-01-17 09:00:00 6.7 8 Este 13 Nordeste 0 1015.2 1.2 92
2019-01-17 08:00:00 5.3 6 Nordeste 9 Nordeste 0 1014.7 0.2 91
2019-01-17 07:00:00 5.3 2 Noroeste 21 Noroeste 0 1014.3 -0.4 88
2019-01-17 06:00:00 6.6 3 Nordeste 9 Nordeste 0 1014 -0.6 88
2019-01-17 05:00:00 6.5 8 Nordeste 15 Nordeste 0 1014.5 -0.4 88
2019-01-17 04:00:00 6.7 9 Nordeste 15 Nordeste 0 1014.7 -0.6 91
2019-01-17 03:00:00 7.6 9 Nordeste 11 Nordeste 0 1014.6 -0.8 88
2019-01-17 02:00:00 9.2 7 Norte 11 Norte 0 1014.9 -0.7 84
2019-01-17 01:00:00 10.5 0 Calma 9 Este 0 1015.3 0.1 80
2019-01-17 00:00:00 11.2 7 Este 13 Este 0 1015.4 0.3 77
2019-01-16 23:00:00 11.3 10 Este 13 Este 0 1015.6 0.6 77
2019-01-16 22:00:00 11 3 Este -- -- 0 1015.2 0.5 79
2019-01-16 21:00:00 11.4 4 Sudeste 9 Nordeste 0 1015.1 0.6 75
2019-01-16 20:00:00 13 6 Sudoeste 9 Sudoeste 0 1015 0.5 65
2019-01-16 19:00:00 13 0 Calma 8 Sudoeste 0 1014.7 0 68
2019-01-16 18:00:00 15.6 2 Sudoeste 11 Sudeste 0 1014.5 -0.8 55
2019-01-16 17:00:00 16.6 3 Este 11 Norte 0 1014.5 -1.5 54
2019-01-16 16:00:00 16.2 5 Norte 18 Este 0 1014.7 -2.3 56
2019-01-16 15:00:00 16.7 5 Oeste 13 Sudoeste 0 1015.3 -2.6 55
2019-01-16 14:00:00 15.4 5 Noroeste 9 Oeste 0 1016 -1.8 63
2019-01-16 13:00:00 13.7 4 Norte 13 Norte 0 1017 -0.6 70